Airfield :
LOGIN :

Register | Disclaimer

   EN    FR    IT 

 










Legend :    VFR   Marginal VFR   IFR   Intensive IFR   Very Intensive IFR
Visi :
Ceiling :
>= 8 km
>= 3000ft
5 to 8 km
1000 to 3000 ft
1500m to 5 km
500 to 1000 ft
800 to 1500m
200 to 500 ft
< 800m
< 200 ft
Symbols :   Thunderstorms  Fog  Heavy snow  Heavy precipitations  Wind > 20 kt
SIGMETs :     Misc.  Thunderstorms  Icing  Turbulence  Mountain Waves  Volcanic Ashes







- Airport Elevation : 308 ft
- IATA code : MHG


EDFM - Mannheim-City

CURRENT METAR :
  • 251150Z 27015KT CAVOK 10/M02 Q1022

EXPIRED METARs :
  • 251120Z 30012KT 270V330 9999 FEW045 SCT053 11/M03 Q1021
  • 251050Z 28014KT 9999 FEW041 BKN045 10/M01 Q1022
  • 251020Z 30010KT 280V340 9999 BKN039 09/00 Q1022
  • 250950Z 28014KT 9999 FEW036 BKN044 09/M00 Q1022
  • 250920Z 27012KT 9999 BKN039 BKN063 08/00 Q1022

TAF TAF EDFM
Valid from the 25 at 12:00 until the 25 at 21:00 UTC


251100Z 2512/2521 30015G25KT 9999 SCT020 BKN035
PROB40
TEMPO 2512/2519 SHRA SCT030CB
PROB30
TEMPO 2512/2517 32020G35KT 3500 TSGS BKN014 BKN020CB
BECMG 2518/2521 30007KT
No reported NOTAMs for that airfield.



MET'MAP, your aeronautical weather chart ! - Copyright ORBIFLY December 2007 - Disclaimer

ORBIFLY MET'MAP TEAM :

Programming & Development : Alexandra Zaïnal
Concept & Development : Baudouin d'Aumeries
Co-Development & Prog : Marc-Olivier Méhu
Technical & hardware support : Manuel Goepfert

Contact : metmap@orbifly.com




SOURCES & CREDITS :

   NOAA